sensor_id;sensor_type;location;lat;lon;timestamp;temperature;humidity
49052;DHT22;34866;48.670;18.260;2022-09-09T00:06:45;384.80;2329.60
49052;DHT22;34866;48.670;18.260;2022-09-09T00:17:43;384.70;2329.60
49052;DHT22;34866;48.670;18.260;2022-09-09T00:27:42;384.40;2329.60
49052;DHT22;34866;48.670;18.260;2022-09-09T00:30:36;384.10;2329.60
49052;DHT22;34866;48.670;18.260;2022-09-09T00:37:10;359.30;2329.60
49052;DHT22;34866;48.670;18.260;2022-09-09T00:40:35;384.20;2329.60
49052;DHT22;34866;48.670;18.260;2022-09-09T00:54:04;359.20;2329.60
49052;DHT22;34866;48.670;18.260;2022-09-09T00:57:23;359.20;2329.60
49052;DHT22;34866;48.670;18.260;2022-09-09T01:04:09;359.10;2329.60
49052;DHT22;34866;48.670;18.260;2022-09-09T01:07:32;359.20;2329.60
49052;DHT22;34866;48.670;18.260;2022-09-09T01:10:30;358.90;2329.60
49052;DHT22;34866;48.670;18.260;2022-09-09T01:13:47;358.90;2329.60
49052;DHT22;34866;48.670;18.260;2022-09-09T01:17:00;358.80;2329.60
49052;DHT22;34866;48.670;18.260;2022-09-09T01:26:56;358.70;2329.60
49052;DHT22;34866;48.670;18.260;2022-09-09T01:33:43;358.60;2329.60
49052;DHT22;34866;48.670;18.260;2022-09-09T01:37:08;358.70;2329.60
49052;DHT22;34866;48.670;18.260;2022-09-09T01:43:37;358.80;2329.60
49052;DHT22;34866;48.670;18.260;2022-09-09T01:50:39;358.60;2329.60
49052;DHT22;34866;48.670;18.260;2022-09-09T02:00:58;333.50;2329.60
49052;DHT22;34866;48.670;18.260;2022-09-09T02:07:56;333.60;2329.60
49052;DHT22;34866;48.670;18.260;2022-09-09T02:11:18;333.50;2329.60
49052;DHT22;34866;48.670;18.260;2022-09-09T02:17:39;333.70;2329.60
49052;DHT22;34866;48.670;18.260;2022-09-09T02:21:04;333.70;2329.60
49052;DHT22;34866;48.670;18.260;2022-09-09T02:27:13;358.40;2329.60
49052;DHT22;34866;48.670;18.260;2022-09-09T02:30:39;358.60;2329.60
49052;DHT22;34866;48.670;18.260;2022-09-09T02:36:53;358.50;2329.60
49052;DHT22;34866;48.670;18.260;2022-09-09T02:43:25;358.70;2329.60
49052;DHT22;34866;48.670;18.260;2022-09-09T02:47:04;358.70;2329.60
49052;DHT22;34866;48.670;18.260;2022-09-09T02:53:14;358.60;2329.60
49052;DHT22;34866;48.670;18.260;2022-09-09T02:59:41;358.50;2329.60
49052;DHT22;34866;48.670;18.260;2022-09-09T03:02:55;358.40;2329.60
49052;DHT22;34866;48.670;18.260;2022-09-09T03:09:48;333.60;2329.60
49052;DHT22;34866;48.670;18.260;2022-09-09T03:13:03;333.70;2329.60
49052;DHT22;34866;48.670;18.260;2022-09-09T03:19:13;333.50;2329.60
49052;DHT22;34866;48.670;18.260;2022-09-09T03:31:48;333.50;2329.60
49052;DHT22;34866;48.670;18.260;2022-09-09T03:40:54;333.40;2329.60
49052;DHT22;34866;48.670;18.260;2022-09-09T03:43:29;333.50;2329.60
49052;DHT22;34866;48.670;18.260;2022-09-09T03:46:30;333.50;2329.60
49052;DHT22;34866;48.670;18.260;2022-09-09T03:49:23;333.60;2329.60
49052;DHT22;34866;48.670;18.260;2022-09-09T03:51:54;333.30;2329.60
49052;DHT22;34866;48.670;18.260;2022-09-09T03:54:46;333.20;2329.60
49052;DHT22;34866;48.670;18.260;2022-09-09T03:57:14;333.20;2329.60
49052;DHT22;34866;48.670;18.260;2022-09-09T04:00:36;333.20;2329.60
49052;DHT22;34866;48.670;18.260;2022-09-09T04:04:07;333.20;2329.60
49052;DHT22;34866;48.670;18.260;2022-09-09T04:07:13;333.20;2329.60
49052;DHT22;34866;48.670;18.260;2022-09-09T04:10:01;333.20;2329.60
49052;DHT22;34866;48.670;18.260;2022-09-09T04:13:07;333.00;2329.60
49052;DHT22;34866;48.670;18.260;2022-09-09T04:15:33;333.20;2329.60
49052;DHT22;34866;48.670;18.260;2022-09-09T04:18:22;333.20;2329.60
49052;DHT22;34866;48.670;18.260;2022-09-09T04:20:57;333.00;2329.60
49052;DHT22;34866;48.670;18.260;2022-09-09T04:23:30;333.20;2329.60
49052;DHT22;34866;48.670;18.260;2022-09-09T04:26:17;333.10;2329.60
49052;DHT22;34866;48.670;18.260;2022-09-09T04:29:11;333.00;2329.60
49052;DHT22;34866;48.670;18.260;2022-09-09T04:32:00;333.00;2329.60
49052;DHT22;34866;48.670;18.260;2022-09-09T04:34:48;333.10;2329.60
49052;DHT22;34866;48.670;18.260;2022-09-09T04:37:17;332.90;2329.60
49052;DHT22;34866;48.670;18.260;2022-09-09T04:40:34;332.90;2329.60
49052;DHT22;34866;48.670;18.260;2022-09-09T04:43:41;332.90;2329.60
49052;DHT22;34866;48.670;18.260;2022-09-09T04:46:09;333.00;2329.60
49052;DHT22;34866;48.670;18.260;2022-09-09T04:49:19;332.80;2329.60
49052;DHT22;34866;48.670;18.260;2022-09-09T04:51:45;332.90;2329.60
49052;DHT22;34866;48.670;18.260;2022-09-09T04:54:14;332.80;2329.60
49052;DHT22;34866;48.670;18.260;2022-09-09T04:57:10;332.80;2329.60
49052;DHT22;34866;48.670;18.260;2022-09-09T04:59:38;332.80;2329.60
49052;DHT22;34866;48.670;18.260;2022-09-09T05:02:26;332.90;2329.60
49052;DHT22;34866;48.670;18.260;2022-09-09T05:05:36;332.80;2329.60
49052;DHT22;34866;48.670;18.260;2022-09-09T05:08:05;333.00;2329.60
49052;DHT22;34866;48.670;18.260;2022-09-09T05:10:40;333.00;2329.60
49052;DHT22;34866;48.670;18.260;2022-09-09T05:13:08;333.00;2329.60
49052;DHT22;34866;48.670;18.260;2022-09-09T05:15:35;333.10;2329.60
49052;DHT22;34866;48.670;18.260;2022-09-09T05:18:04;333.00;2329.60
49052;DHT22;34866;48.670;18.260;2022-09-09T05:20:32;333.20;2329.60
49052;DHT22;34866;48.670;18.260;2022-09-09T05:23:02;333.20;2329.60
49052;DHT22;34866;48.670;18.260;2022-09-09T05:25:38;333.30;2329.60
49052;DHT22;34866;48.670;18.260;2022-09-09T05:28:35;333.40;2329.60
49052;DHT22;34866;48.670;18.260;2022-09-09T05:31:46;333.40;2329.60
49052;DHT22;34866;48.670;18.260;2022-09-09T05:34:53;333.60;2329.60
49052;DHT22;34866;48.670;18.260;2022-09-09T05:41:22;358.70;2329.60
49052;DHT22;34866;48.670;18.260;2022-09-09T05:44:54;359.10;2329.60
49052;DHT22;34866;48.670;18.260;2022-09-09T05:51:31;384.30;2329.60
49052;DHT22;34866;48.670;18.260;2022-09-09T05:54:28;384.40;2329.60
49052;DHT22;34866;48.670;18.260;2022-09-09T06:01:40;384.80;2329.60
49052;DHT22;34866;48.670;18.260;2022-09-09T06:05:27;409.60;2355.20
49052;DHT22;34866;48.670;18.260;2022-09-09T06:16:21;410.00;2355.20
49052;DHT22;34866;48.670;18.260;2022-09-09T06:23:08;410.30;2355.20
49052;DHT22;34866;48.670;18.260;2022-09-09T06:26:31;436.10;2355.20
49052;DHT22;34866;48.670;18.260;2022-09-09T06:32:40;435.30;2355.20
49052;DHT22;34866;48.670;18.260;2022-09-09T06:38:30;435.20;2355.20
49052;DHT22;34866;48.670;18.260;2022-09-09T06:44:58;435.30;2355.20
49052;DHT22;34866;48.670;18.260;2022-09-09T06:51:29;435.70;2355.20
49052;DHT22;34866;48.670;18.260;2022-09-09T06:54:18;435.70;2355.20
49052;DHT22;34866;48.670;18.260;2022-09-09T06:56:53;436.00;2355.20
49052;DHT22;34866;48.670;18.260;2022-09-09T07:03:47;461.20;2380.80
49052;DHT22;34866;48.670;18.260;2022-09-09T07:06:52;461.40;2380.80
49052;DHT22;34866;48.670;18.260;2022-09-09T07:13:06;461.00;2380.80
49052;DHT22;34866;48.670;18.260;2022-09-09T07:22:56;461.40;2380.80
49052;DHT22;34866;48.670;18.260;2022-09-09T07:33:29;461.70;2380.80
49052;DHT22;34866;48.670;18.260;2022-09-09T07:43:17;461.70;2380.80
49052;DHT22;34866;48.670;18.260;2022-09-09T07:50:09;486.90;2380.80
49052;DHT22;34866;48.670;18.260;2022-09-09T07:56:43;486.80;2380.80
49052;DHT22;34866;48.670;18.260;2022-09-09T08:07:42;487.10;2380.80
49052;DHT22;34866;48.670;18.260;2022-09-09T08:14:46;512.00;2380.80
49052;DHT22;34866;48.670;18.260;2022-09-09T08:17:49;512.10;2099.20
49052;DHT22;34866;48.670;18.260;2022-09-09T08:24:03;512.20;2380.80
49052;DHT22;34866;48.670;18.260;2022-09-09T08:34:06;512.50;2380.80
49052;DHT22;34866;48.670;18.260;2022-09-09T08:40:45;537.70;2406.40
49052;DHT22;34866;48.670;18.260;2022-09-09T08:44:48;512.90;2380.80
49052;DHT22;34866;48.670;18.260;2022-09-09T08:54:37;537.80;2406.40
49052;DHT22;34866;48.670;18.260;2022-09-09T08:58:09;538.00;2406.40
49052;DHT22;34866;48.670;18.260;2022-09-09T09:23:24;563.40;2432.00
49052;DHT22;34866;48.670;18.260;2022-09-09T09:29:41;563.40;2432.00
49052;DHT22;34866;48.670;18.260;2022-09-09T09:32:37;563.60;2432.00
49052;DHT22;34866;48.670;18.260;2022-09-09T09:39:02;563.90;2355.20
49052;DHT22;34866;48.670;18.260;2022-09-09T09:48:31;563.90;1689.60
49052;DHT22;34866;48.670;18.260;2022-09-09T09:51:48;589.10;1689.60
49052;DHT22;34866;48.670;18.260;2022-09-09T09:57:54;589.10;1305.60
49052;DHT22;34866;48.670;18.260;2022-09-09T10:01:18;588.80;1331.20
49052;DHT22;34866;48.670;18.260;2022-09-09T10:03:53;588.90;1612.80
49052;DHT22;34866;48.670;18.260;2022-09-09T10:06:46;564.10;1356.80
49052;DHT22;34866;48.670;18.260;2022-09-09T10:23:37;589.10;1510.40
49052;DHT22;34866;48.670;18.260;2022-09-09T10:29:47;589.40;1203.20
49052;DHT22;34866;48.670;18.260;2022-09-09T10:36:25;589.50;1228.80
49052;DHT22;34866;48.670;18.260;2022-09-09T10:42:41;589.60;1049.60
49052;DHT22;34866;48.670;18.260;2022-09-09T10:45:36;589.50;998.40
49052;DHT22;34866;48.670;18.260;2022-09-09T11:00:41;614.40;870.40
49052;DHT22;34866;48.670;18.260;2022-09-09T11:14:14;615.00;921.60
49052;DHT22;34866;48.670;18.260;2022-09-09T11:16:58;615.20;844.80
49052;DHT22;34866;48.670;18.260;2022-09-09T11:23:01;615.00;896.00
49052;DHT22;34866;48.670;18.260;2022-09-09T11:26:33;614.60;870.40
49052;DHT22;34866;48.670;18.260;2022-09-09T11:43:13;589.50;921.60
49052;DHT22;34866;48.670;18.260;2022-09-09T11:46:36;589.50;1075.20
49052;DHT22;34866;48.670;18.260;2022-09-09T11:49:52;589.60;1100.80
49052;DHT22;34866;48.670;18.260;2022-09-09T12:19:34;589.70;947.20
49052;DHT22;34866;48.670;18.260;2022-09-09T12:37:41;589.60;1177.60
49052;DHT22;34866;48.670;18.260;2022-09-09T12:40:32;589.60;1049.60
49052;DHT22;34866;48.670;18.260;2022-09-09T12:43:20;589.60;1075.20
49052;DHT22;34866;48.670;18.260;2022-09-09T12:45:59;589.60;1100.80
49052;DHT22;34866;48.670;18.260;2022-09-09T12:48:35;614.60;1203.20
49052;DHT22;34866;48.670;18.260;2022-09-09T12:51:05;615.00;1126.40
49052;DHT22;34866;48.670;18.260;2022-09-09T12:53:52;615.00;1024.00
49052;DHT22;34866;48.670;18.260;2022-09-09T12:56:23;615.10;1075.20
49052;DHT22;34866;48.670;18.260;2022-09-09T12:58:54;615.10;1075.20
49052;DHT22;34866;48.670;18.260;2022-09-09T13:01:28;640.00;1100.80
49052;DHT22;34866;48.670;18.260;2022-09-09T13:04:00;640.00;998.40
49052;DHT22;34866;48.670;18.260;2022-09-09T13:06:32;615.10;972.80
49052;DHT22;34866;48.670;18.260;2022-09-09T13:09:02;615.20;1126.40
49052;DHT22;34866;48.670;18.260;2022-09-09T13:12:03;615.10;1126.40
49052;DHT22;34866;48.670;18.260;2022-09-09T13:14:44;614.60;1075.20
49052;DHT22;34866;48.670;18.260;2022-09-09T13:17:39;614.70;1152.00
49052;DHT22;34866;48.670;18.260;2022-09-09T13:20:32;614.90;1049.60
49052;DHT22;34866;48.670;18.260;2022-09-09T13:23:19;615.30;1177.60
49052;DHT22;34866;48.670;18.260;2022-09-09T13:25:57;615.00;1075.20
49052;DHT22;34866;48.670;18.260;2022-09-09T13:28:29;614.60;998.40
49052;DHT22;34866;48.670;18.260;2022-09-09T13:31:02;614.80;1126.40
49052;DHT22;34866;48.670;18.260;2022-09-09T13:33:37;614.60;1049.60
49052;DHT22;34866;48.670;18.260;2022-09-09T13:36:11;563.80;1152.00
49052;DHT22;34866;48.670;18.260;2022-09-09T13:41:35;614.40;1075.20
49052;DHT22;34866;48.670;18.260;2022-09-09T13:44:28;589.60;1100.80
49052;DHT22;34866;48.670;18.260;2022-09-09T13:47:04;589.50;1075.20
49052;DHT22;34866;48.670;18.260;2022-09-09T13:49:30;589.40;1126.40
49052;DHT22;34866;48.670;18.260;2022-09-09T13:52:10;589.40;1203.20
49052;DHT22;34866;48.670;18.260;2022-09-09T13:54:37;589.30;1203.20
49052;DHT22;34866;48.670;18.260;2022-09-09T13:57:25;589.20;1203.20
49052;DHT22;34866;48.670;18.260;2022-09-09T13:59:53;589.30;1228.80
49052;DHT22;34866;48.670;18.260;2022-09-09T14:02:20;589.40;1356.80
49052;DHT22;34866;48.670;18.260;2022-09-09T14:04:47;589.40;1228.80
49052;DHT22;34866;48.670;18.260;2022-09-09T14:07:32;589.20;1331.20
49052;DHT22;34866;48.670;18.260;2022-09-09T14:09:58;589.10;1280.00
49052;DHT22;34866;48.670;18.260;2022-09-09T14:12:31;589.10;1433.60
49052;DHT22;34866;48.670;18.260;2022-09-09T14:15:02;589.10;1254.40
49052;DHT22;34866;48.670;18.260;2022-09-09T14:17:29;589.10;1331.20
49052;DHT22;34866;48.670;18.260;2022-09-09T14:19:57;589.10;1408.00
49052;DHT22;34866;48.670;18.260;2022-09-09T14:22:23;589.20;1382.40
49052;DHT22;34866;48.670;18.260;2022-09-09T14:24:49;589.10;1280.00
49052;DHT22;34866;48.670;18.260;2022-09-09T14:27:19;589.00;1408.00
49052;DHT22;34866;48.670;18.260;2022-09-09T14:29:45;589.00;1382.40
49052;DHT22;34866;48.670;18.260;2022-09-09T14:32:11;588.90;1382.40
49052;DHT22;34866;48.670;18.260;2022-09-09T14:34:37;589.10;1382.40
49052;DHT22;34866;48.670;18.260;2022-09-09T14:37:03;589.00;1408.00
49052;DHT22;34866;48.670;18.260;2022-09-09T14:39:29;589.00;1484.80
49052;DHT22;34866;48.670;18.260;2022-09-09T14:41:56;588.90;1612.80
49052;DHT22;34866;48.670;18.260;2022-09-09T14:44:22;588.90;1561.60
49052;DHT22;34866;48.670;18.260;2022-09-09T14:46:48;589.00;1561.60
49052;DHT22;34866;48.670;18.260;2022-09-09T14:49:15;588.90;1587.20
49052;DHT22;34866;48.670;18.260;2022-09-09T14:51:41;588.80;1664.00
49052;DHT22;34866;48.670;18.260;2022-09-09T14:54:08;564.10;1689.60
49052;DHT22;34866;48.670;18.260;2022-09-09T14:56:36;564.10;1612.80
49052;DHT22;34866;48.670;18.260;2022-09-09T14:59:07;588.80;1587.20
49052;DHT22;34866;48.670;18.260;2022-09-09T15:01:33;589.00;1587.20
49052;DHT22;34866;48.670;18.260;2022-09-09T15:04:22;589.10;1510.40
49052;DHT22;34866;48.670;18.260;2022-09-09T15:06:48;589.40;1459.20
49052;DHT22;34866;48.670;18.260;2022-09-09T15:09:15;589.50;1510.40
49052;DHT22;34866;48.670;18.260;2022-09-09T15:11:41;614.50;1459.20
49052;DHT22;34866;48.670;18.260;2022-09-09T15:14:11;614.90;1433.60
49052;DHT22;34866;48.670;18.260;2022-09-09T15:16:38;614.80;1408.00
49052;DHT22;34866;48.670;18.260;2022-09-09T15:19:04;589.60;1356.80
49052;DHT22;34866;48.670;18.260;2022-09-09T15:21:33;589.50;1280.00
49052;DHT22;34866;48.670;18.260;2022-09-09T15:24:00;589.10;1382.40
49052;DHT22;34866;48.670;18.260;2022-09-09T15:26:27;588.80;1510.40
49052;DHT22;34866;48.670;18.260;2022-09-09T15:28:53;563.70;1561.60
49052;DHT22;34866;48.670;18.260;2022-09-09T15:31:22;564.10;1561.60
49052;DHT22;34866;48.670;18.260;2022-09-09T15:34:14;563.90;1484.80
49052;DHT22;34866;48.670;18.260;2022-09-09T15:36:45;563.90;1612.80
49052;DHT22;34866;48.670;18.260;2022-09-09T15:39:16;563.80;1689.60
49052;DHT22;34866;48.670;18.260;2022-09-09T15:41:48;563.60;1843.20
49052;DHT22;34866;48.670;18.260;2022-09-09T15:44:18;512.40;1996.80
49052;DHT22;34866;48.670;18.260;2022-09-09T15:46:54;563.50;1971.20
49052;DHT22;34866;48.670;18.260;2022-09-09T15:49:32;563.60;1894.40
49052;DHT22;34866;48.670;18.260;2022-09-09T15:51:59;563.50;2227.20
49052;DHT22;34866;48.670;18.260;2022-09-09T15:55:07;563.50;2124.80
49052;DHT22;34866;48.670;18.260;2022-09-09T15:57:34;563.50;2176.00
49052;DHT22;34866;48.670;18.260;2022-09-09T16:00:07;563.40;2048.00
49052;DHT22;34866;48.670;18.260;2022-09-09T16:02:34;563.40;2252.80
49052;DHT22;34866;48.670;18.260;2022-09-09T16:05:05;563.30;2432.00
49052;DHT22;34866;48.670;18.260;2022-09-09T16:07:33;563.30;2432.00
49052;DHT22;34866;48.670;18.260;2022-09-09T16:10:00;563.30;2432.00
49052;DHT22;34866;48.670;18.260;2022-09-09T16:12:26;563.20;2432.00
49052;DHT22;34866;48.670;18.260;2022-09-09T16:15:14;538.50;2406.40
49052;DHT22;34866;48.670;18.260;2022-09-09T16:17:40;563.20;2432.00
49052;DHT22;34866;48.670;18.260;2022-09-09T16:20:13;563.20;2432.00
49052;DHT22;34866;48.670;18.260;2022-09-09T16:22:42;538.40;2406.40
49052;DHT22;34866;48.670;18.260;2022-09-09T16:25:11;538.40;2406.40
49052;DHT22;34866;48.670;18.260;2022-09-09T16:28:24;538.40;2406.40
49052;DHT22;34866;48.670;18.260;2022-09-09T16:31:35;538.30;2406.40
49052;DHT22;34866;48.670;18.260;2022-09-09T16:34:08;538.20;2406.40
49052;DHT22;34866;48.670;18.260;2022-09-09T16:37:00;538.00;2406.40
49052;DHT22;34866;48.670;18.260;2022-09-09T16:39:51;538.10;2406.40
49052;DHT22;34866;48.670;18.260;2022-09-09T16:42:23;538.00;2406.40
49052;DHT22;34866;48.670;18.260;2022-09-09T16:44:52;538.00;2406.40
49052;DHT22;34866;48.670;18.260;2022-09-09T16:47:18;537.90;2406.40
49052;DHT22;34866;48.670;18.260;2022-09-09T16:49:46;537.80;2406.40
49052;DHT22;34866;48.670;18.260;2022-09-09T16:52:13;537.80;2406.40
49052;DHT22;34866;48.670;18.260;2022-09-09T16:54:39;537.70;2406.40
49052;DHT22;34866;48.670;18.260;2022-09-09T16:57:08;537.70;2406.40
49052;DHT22;34866;48.670;18.260;2022-09-09T16:59:34;537.70;2406.40
49052;DHT22;34866;48.670;18.260;2022-09-09T17:02:01;537.60;2406.40
49052;DHT22;34866;48.670;18.260;2022-09-09T17:04:28;512.80;2380.80
49052;DHT22;34866;48.670;18.260;2022-09-09T17:06:59;512.70;2380.80
49052;DHT22;34866;48.670;18.260;2022-09-09T17:09:26;512.60;2380.80
49052;DHT22;34866;48.670;18.260;2022-09-09T17:12:00;512.70;2380.80
49052;DHT22;34866;48.670;18.260;2022-09-09T17:14:49;512.60;2380.80
49052;DHT22;34866;48.670;18.260;2022-09-09T17:18:03;512.60;2380.80
49052;DHT22;34866;48.670;18.260;2022-09-09T17:21:17;512.50;2380.80
49052;DHT22;34866;48.670;18.260;2022-09-09T17:24:05;512.60;2380.80
49052;DHT22;34866;48.670;18.260;2022-09-09T17:26:33;512.60;2380.80
49052;DHT22;34866;48.670;18.260;2022-09-09T17:29:25;512.50;2380.80
49052;DHT22;34866;48.670;18.260;2022-09-09T17:35:05;512.30;2380.80
49052;DHT22;34866;48.670;18.260;2022-09-09T17:37:31;512.10;2380.80
49052;DHT22;34866;48.670;18.260;2022-09-09T17:40:11;512.00;2380.80
49052;DHT22;34866;48.670;18.260;2022-09-09T17:42:40;512.10;2380.80
49052;DHT22;34866;48.670;18.260;2022-09-09T17:45:27;512.10;2380.80
49052;DHT22;34866;48.670;18.260;2022-09-09T17:47:57;512.00;2380.80
49052;DHT22;34866;48.670;18.260;2022-09-09T17:50:29;487.20;2380.80
49052;DHT22;34866;48.670;18.260;2022-09-09T17:53:00;487.10;2380.80
49052;DHT22;34866;48.670;18.260;2022-09-09T17:55:27;487.30;2380.80
49052;DHT22;34866;48.670;18.260;2022-09-09T17:58:08;487.20;2380.80
49052;DHT22;34866;48.670;18.260;2022-09-09T18:00:35;487.30;2380.80
49052;DHT22;34866;48.670;18.260;2022-09-09T18:03:04;538.00;2406.40
49052;DHT22;34866;48.670;18.260;2022-09-09T18:05:35;486.90;2380.80
49052;DHT22;34866;48.670;18.260;2022-09-09T18:08:03;486.90;2380.80
49052;DHT22;34866;48.670;18.260;2022-09-09T18:10:34;486.90;2380.80
49052;DHT22;34866;48.670;18.260;2022-09-09T18:13:01;486.90;2355.20
49052;DHT22;34866;48.670;18.260;2022-09-09T18:15:47;486.80;2380.80
49052;DHT22;34866;48.670;18.260;2022-09-09T18:18:19;486.80;2380.80
49052;DHT22;34866;48.670;18.260;2022-09-09T18:21:18;486.80;2380.80
49052;DHT22;34866;48.670;18.260;2022-09-09T18:24:35;486.80;2380.80
49052;DHT22;34866;48.670;18.260;2022-09-09T18:27:02;486.80;2278.40
49052;DHT22;34866;48.670;18.260;2022-09-09T18:29:48;486.90;2252.80
49052;DHT22;34866;48.670;18.260;2022-09-09T18:32:15;486.80;2380.80
49052;DHT22;34866;48.670;18.260;2022-09-09T18:34:50;486.70;2380.80
49052;DHT22;34866;48.670;18.260;2022-09-09T18:37:19;486.80;2380.80
49052;DHT22;34866;48.670;18.260;2022-09-09T18:39:45;486.80;2380.80
49052;DHT22;34866;48.670;18.260;2022-09-09T18:42:11;486.80;2380.80
49052;DHT22;34866;48.670;18.260;2022-09-09T18:44:56;486.80;2380.80
49052;DHT22;34866;48.670;18.260;2022-09-09T18:47:29;486.70;2380.80
49052;DHT22;34866;48.670;18.260;2022-09-09T18:50:03;486.70;2380.80
49052;DHT22;34866;48.670;18.260;2022-09-09T18:53:00;486.70;2380.80
49052;DHT22;34866;48.670;18.260;2022-09-09T18:55:44;486.60;2380.80
49052;DHT22;34866;48.670;18.260;2022-09-09T18:58:10;486.50;2380.80
49052;DHT22;34866;48.670;18.260;2022-09-09T19:00:48;486.50;2380.80
49052;DHT22;34866;48.670;18.260;2022-09-09T19:03:40;486.40;2380.80
49052;DHT22;34866;48.670;18.260;2022-09-09T19:06:14;461.60;2380.80
49052;DHT22;34866;48.670;18.260;2022-09-09T19:08:41;461.60;2380.80
49052;DHT22;34866;48.670;18.260;2022-09-09T19:11:12;461.70;2380.80
49052;DHT22;34866;48.670;18.260;2022-09-09T19:14:16;461.70;2380.80
49052;DHT22;34866;48.670;18.260;2022-09-09T19:17:31;461.70;2380.80
49052;DHT22;34866;48.670;18.260;2022-09-09T19:20:09;461.30;2380.80
49052;DHT22;34866;48.670;18.260;2022-09-09T19:22:34;461.20;2380.80
49052;DHT22;34866;48.670;18.260;2022-09-09T19:25:06;461.20;2380.80
49052;DHT22;34866;48.670;18.260;2022-09-09T19:27:41;461.50;2380.80
49052;DHT22;34866;48.670;18.260;2022-09-09T19:30:11;461.50;2380.80
49052;DHT22;34866;48.670;18.260;2022-09-09T19:32:38;461.40;2380.80
49052;DHT22;34866;48.670;18.260;2022-09-09T19:35:09;461.30;2380.80
49052;DHT22;34866;48.670;18.260;2022-09-09T19:37:36;461.30;2380.80
49052;DHT22;34866;48.670;18.260;2022-09-09T19:40:23;461.40;2380.80
49052;DHT22;34866;48.670;18.260;2022-09-09T19:42:50;461.20;2380.80
49052;DHT22;34866;48.670;18.260;2022-09-09T19:45:22;461.30;2380.80
49052;DHT22;34866;48.670;18.260;2022-09-09T19:47:57;461.20;2380.80
49052;DHT22;34866;48.670;18.260;2022-09-09T19:50:25;461.40;2380.80
49052;DHT22;34866;48.670;18.260;2022-09-09T19:52:56;461.10;2380.80
49052;DHT22;34866;48.670;18.260;2022-09-09T19:55:23;461.40;2380.80
49052;DHT22;34866;48.670;18.260;2022-09-09T19:57:49;461.30;2380.80
49052;DHT22;34866;48.670;18.260;2022-09-09T20:00:15;461.10;2380.80
49052;DHT22;34866;48.670;18.260;2022-09-09T20:02:44;460.90;2380.80
49052;DHT22;34866;48.670;18.260;2022-09-09T20:05:09;461.10;2380.80
49052;DHT22;34866;48.670;18.260;2022-09-09T20:07:41;461.30;2380.80
49052;DHT22;34866;48.670;18.260;2022-09-09T20:10:12;461.30;2380.80
49052;DHT22;34866;48.670;18.260;2022-09-09T20:12:38;461.10;2380.80
49052;DHT22;34866;48.670;18.260;2022-09-09T20:15:05;461.00;2380.80
49052;DHT22;34866;48.670;18.260;2022-09-09T20:17:42;460.90;2380.80
49052;DHT22;34866;48.670;18.260;2022-09-09T20:20:32;460.90;2380.80
49052;DHT22;34866;48.670;18.260;2022-09-09T20:23:26;461.00;2380.80
49052;DHT22;34866;48.670;18.260;2022-09-09T20:25:52;460.90;2380.80
49052;DHT22;34866;48.670;18.260;2022-09-09T20:28:35;460.90;2380.80
49052;DHT22;34866;48.670;18.260;2022-09-09T20:31:13;460.80;2380.80
49052;DHT22;34866;48.670;18.260;2022-09-09T20:33:45;460.90;2380.80
49052;DHT22;34866;48.670;18.260;2022-09-09T20:36:37;460.90;2380.80
49052;DHT22;34866;48.670;18.260;2022-09-09T20:39:13;460.90;2380.80
49052;DHT22;34866;48.670;18.260;2022-09-09T20:42:02;460.90;2380.80
49052;DHT22;34866;48.670;18.260;2022-09-09T20:44:30;461.00;2380.80
49052;DHT22;34866;48.670;18.260;2022-09-09T20:46:56;461.00;2380.80
49052;DHT22;34866;48.670;18.260;2022-09-09T20:49:46;461.00;2380.80
49052;DHT22;34866;48.670;18.260;2022-09-09T20:52:14;461.00;2380.80
49052;DHT22;34866;48.670;18.260;2022-09-09T20:54:53;461.10;2380.80
49052;DHT22;34866;48.670;18.260;2022-09-09T20:57:22;461.10;2380.80
49052;DHT22;34866;48.670;18.260;2022-09-09T20:59:54;461.10;2380.80
49052;DHT22;34866;48.670;18.260;2022-09-09T21:02:53;461.10;2380.80
49052;DHT22;34866;48.670;18.260;2022-09-09T21:05:19;461.10;2380.80
49052;DHT22;34866;48.670;18.260;2022-09-09T21:07:44;461.00;2380.80
49052;DHT22;34866;48.670;18.260;2022-09-09T21:10:10;461.00;2380.80
49052;DHT22;34866;48.670;18.260;2022-09-09T21:12:36;460.90;2380.80
49052;DHT22;34866;48.670;18.260;2022-09-09T21:15:08;461.10;2380.80
49052;DHT22;34866;48.670;18.260;2022-09-09T21:17:40;461.00;2380.80
49052;DHT22;34866;48.670;18.260;2022-09-09T21:20:18;461.10;2380.80
49052;DHT22;34866;48.670;18.260;2022-09-09T21:22:44;461.10;2380.80
49052;DHT22;34866;48.670;18.260;2022-09-09T21:25:11;461.10;2380.80
49052;DHT22;34866;48.670;18.260;2022-09-09T21:27:37;461.10;2380.80
49052;DHT22;34866;48.670;18.260;2022-09-09T21:30:09;461.00;2380.80
49052;DHT22;34866;48.670;18.260;2022-09-09T21:32:35;461.00;2380.80
49052;DHT22;34866;48.670;18.260;2022-09-09T21:35:05;461.00;2380.80
49052;DHT22;34866;48.670;18.260;2022-09-09T21:37:46;460.90;2380.80
49052;DHT22;34866;48.670;18.260;2022-09-09T21:40:19;460.90;2380.80
49052;DHT22;34866;48.670;18.260;2022-09-09T21:42:48;460.90;2380.80
49052;DHT22;34866;48.670;18.260;2022-09-09T21:45:14;436.10;2355.20
49052;DHT22;34866;48.670;18.260;2022-09-09T21:47:43;436.10;2355.20
49052;DHT22;34866;48.670;18.260;2022-09-09T21:50:14;436.10;2355.20
49052;DHT22;34866;48.670;18.260;2022-09-09T21:52:41;460.90;2380.80
49052;DHT22;34866;48.670;18.260;2022-09-09T21:55:07;461.00;2380.80
49052;DHT22;34866;48.670;18.260;2022-09-09T21:57:35;461.00;2380.80
49052;DHT22;34866;48.670;18.260;2022-09-09T22:00:05;436.10;2355.20
49052;DHT22;34866;48.670;18.260;2022-09-09T22:02:36;436.10;2355.20
49052;DHT22;34866;48.670;18.260;2022-09-09T22:05:05;436.00;2355.20
49052;DHT22;34866;48.670;18.260;2022-09-09T22:07:34;435.90;2355.20
49052;DHT22;34866;48.670;18.260;2022-09-09T22:10:07;436.00;2355.20
49052;DHT22;34866;48.670;18.260;2022-09-09T22:12:37;436.00;2355.20
49052;DHT22;34866;48.670;18.260;2022-09-09T22:15:06;435.90;2355.20
49052;DHT22;34866;48.670;18.260;2022-09-09T22:17:39;435.90;2355.20